Time;durP1;ratioP1;P1;durP2;ratioP2;P2;SDS_P1;SDS_P2;PMS_P1;PMS_P2;Temp;Humidity;BMP_temperature;BMP_pressure;BME280_temperature;BME280_humidity;BME280_pressure;Samples;Min_cycle;Max_cycle;Signal;HPM_P1;HPM_P2
2023/04/21 00:00:33;;;;;;;18.03;15.87;;;;;;;13.24;56.14;97594.22;8279826;28;20234;-75
2023/04/21 00:04:36;;;;;;;17.60;15.80;;;;;;;13.23;56.12;97605.56;8279645;28;20235;-75
2023/04/21 00:08:39;;;;;;;17.80;15.87;;;;;;;13.14;56.70;97598.31;8279456;28;20227;-75
2023/04/21 00:12:43;;;;;;;17.80;15.90;;;;;;;13.16;56.62;97595.63;8279601;28;20253;-75
2023/04/21 00:16:51;;;;;;;17.73;15.93;;;;;;;13.11;56.35;97596.72;8279448;28;20234;-75
2023/04/21 00:20:54;;;;;;;16.77;14.97;;;;;;;12.98;56.77;97574.16;8279275;28;20234;-75
2023/04/21 00:24:57;;;;;;;16.37;14.67;;;;;;;13.04;56.68;97584.19;8278938;28;20231;-75
2023/04/21 00:29:01;;;;;;;17.00;15.20;;;;;;;12.97;56.65;97583.72;8278959;28;20239;-74
2023/04/21 00:33:04;;;;;;;16.40;14.63;;;;;;;13.00;56.65;97575.72;8278769;28;20235;-75
2023/04/21 00:37:07;;;;;;;17.17;15.37;;;;;;;12.79;57.11;97572.66;8278901;28;20435;-75
2023/04/21 00:41:10;;;;;;;17.10;15.30;;;;;;;12.88;57.03;97563.50;8279005;28;20223;-75
2023/04/21 00:45:14;;;;;;;18.53;16.67;;;;;;;12.79;56.90;97546.66;8278734;28;20239;-75
2023/04/21 00:49:17;;;;;;;17.87;16.07;;;;;;;12.79;57.25;97551.88;8278868;28;20227;-77
2023/04/21 00:53:20;;;;;;;18.80;16.90;;;;;;;12.78;57.19;97552.81;8268557;28;20290;-75
2023/04/21 00:57:23;;;;;;;17.60;15.90;;;;;;;12.85;57.06;97556.72;8278468;28;20322;-75
2023/04/21 01:01:28;;;;;;;16.33;14.73;;;;;;;12.76;57.37;97551.25;8278225;28;20329;-74
2023/04/21 01:05:32;;;;;;;18.17;15.97;;;;;;;12.76;57.45;97553.84;8278170;28;20254;-74
2023/04/21 01:09:35;;;;;;;17.87;16.07;;;;;;;12.75;57.40;97560.78;8278049;28;20235;-74
2023/04/21 01:13:38;;;;;;;18.47;16.53;;;;;;;12.71;57.08;97554.09;8278136;28;20290;-75
2023/04/21 01:17:42;;;;;;;18.63;16.70;;;;;;;12.71;57.35;97557.53;8277729;28;20231;-75
2023/04/21 01:21:48;;;;;;;18.17;15.90;;;;;;;12.68;57.05;97567.28;8277716;28;20418;-75
2023/04/21 01:25:50;;;;;;;18.93;16.23;;;;;;;12.55;56.84;97530.81;8277295;28;20227;-75
2023/04/21 01:29:54;;;;;;;16.83;15.13;;;;;;;12.74;56.42;97571.25;8279863;28;20422;-75
2023/04/21 01:33:57;;;;;;;16.30;14.43;;;;;;;12.74;56.48;97579.06;8282745;28;20462;-74
2023/04/21 01:38:02;;;;;;;19.37;16.30;;;;;;;12.52;56.71;97575.13;8282928;28;20230;-74
2023/04/21 01:42:05;;;;;;;16.23;14.37;;;;;;;12.58;56.75;97589.53;8283148;28;20338;-75
2023/04/21 01:46:08;;;;;;;15.60;13.90;;;;;;;12.48;56.77;97581.44;8282787;28;20507;-75
2023/04/21 01:50:11;;;;;;;14.80;13.40;;;;;;;12.38;57.29;97583.72;8282660;28;20253;-75
2023/04/21 01:54:15;;;;;;;16.23;14.53;;;;;;;12.40;56.97;97586.25;8281868;28;20227;-75
2023/04/21 01:58:18;;;;;;;14.83;13.43;;;;;;;12.35;57.12;97580.47;8281331;28;20531;-76
2023/04/21 02:02:20;;;;;;;14.60;13.20;;;;;;;12.24;57.00;97583.66;8282334;28;20231;-75
2023/04/21 02:06:23;;;;;;;14.60;13.20;;;;;;;12.20;56.93;97584.78;8282540;28;20302;-75
2023/04/21 02:10:27;;;;;;;14.53;13.13;;;;;;;12.06;56.99;97582.97;8282352;28;20377;-74
2023/04/21 02:14:31;;;;;;;14.23;12.93;;;;;;;12.08;56.68;97576.75;8282401;28;20235;-75
2023/04/21 02:18:38;;;;;;;14.40;13.00;;;;;;;11.87;57.06;97573.56;8282991;28;20239;-74
2023/04/21 02:22:41;;;;;;;15.37;13.87;;;;;;;11.80;56.87;97569.66;8282807;28;20223;-74
2023/04/21 02:26:45;;;;;;;15.77;14.17;;;;;;;11.83;56.40;97574.69;8282944;28;20227;-75
2023/04/21 02:30:48;;;;;;;14.33;12.83;;;;;;;11.43;56.28;97495.66;8282863;28;20518;-74
2023/04/21 02:34:51;;;;;;;15.23;13.80;;;;;;;11.73;56.78;97571.75;8282729;28;20232;-75
2023/04/21 02:38:54;;;;;;;15.53;14.00;;;;;;;11.78;56.42;97565.47;8282314;28;20231;-74
2023/04/21 02:42:58;;;;;;;15.57;14.03;;;;;;;11.64;56.80;97555.88;8281203;28;20235;-75
2023/04/21 02:47:02;;;;;;;14.90;13.50;;;;;;;11.42;56.84;97531.09;8282178;28;20479;-74
2023/04/21 02:51:05;;;;;;;16.00;13.60;;;;;;;11.53;56.96;97538.28;8281971;28;20444;-75
2023/04/21 02:55:08;;;;;;;15.23;13.63;;;;;;;11.45;57.00;97537.88;8281868;28;20257;-74
2023/04/21 02:59:15;;;;;;;17.27;15.50;;;;;;;11.57;56.79;97551.94;8281838;28;20295;-74
2023/04/21 03:03:18;;;;;;;16.13;14.53;;;;;;;11.54;56.42;97553.78;8281025;28;20227;-75
2023/04/21 03:07:21;;;;;;;15.50;14.10;;;;;;;11.51;56.45;97559.13;8281654;28;20227;-75
2023/04/21 03:11:24;;;;;;;15.83;14.23;;;;;;;11.43;56.68;97557.88;8281638;28;20561;-74
2023/04/21 03:15:29;;;;;;;16.30;13.83;;;;;;;11.28;56.50;97525.84;8280770;28;20250;-75
2023/04/21 03:19:31;;;;;;;14.93;13.53;;;;;;;11.55;56.20;97560.63;8280985;28;20235;-75
2023/04/21 03:23:34;;;;;;;15.30;13.87;;;;;;;11.43;56.10;97566.50;8281236;28;20242;-75
2023/04/21 03:27:37;;;;;;;15.03;13.53;;;;;;;11.41;56.08;97560.56;8280480;28;20302;-75
2023/04/21 03:31:41;;;;;;;14.93;13.47;;;;;;;11.41;55.89;97563.16;8280536;28;20241;-75
2023/04/21 03:35:44;;;;;;;14.73;13.33;;;;;;;11.29;55.92;97559.47;8281414;28;20231;-74
2023/04/21 03:39:47;;;;;;;14.80;13.30;;;;;;;11.26;56.11;97558.78;8282417;28;20422;-74
2023/04/21 03:43:50;;;;;;;14.83;13.43;;;;;;;11.21;56.40;97566.78;8282381;28;20231;-74
2023/04/21 03:47:55;;;;;;;14.60;13.20;;;;;;;11.23;56.08;97551.16;8282254;28;20416;-75
2023/04/21 03:51:58;;;;;;;13.97;12.57;;;;;;;11.13;56.39;97567.19;8281504;28;20223;-75
2023/04/21 03:56:01;;;;;;;14.90;13.50;;;;;;;11.03;56.68;97560.84;8281844;28;20238;-74
2023/04/21 04:00:05;;;;;;;15.87;14.23;;;;;;;11.13;56.75;97567.19;8281847;28;20254;-74
2023/04/21 04:04:09;;;;;;;16.03;14.43;;;;;;;11.00;56.68;97544.63;8281244;28;20555;-74
2023/04/21 04:08:12;;;;;;;15.73;14.10;;;;;;;11.18;56.73;97571.31;8281705;28;20238;-74
2023/04/21 04:12:15;;;;;;;16.23;14.63;;;;;;;11.18;56.50;97571.31;8280968;28;20230;-75
2023/04/21 04:16:18;;;;;;;15.37;13.87;;;;;;;11.14;56.03;97566.28;8280910;28;20234;-75
2023/04/21 04:20:22;;;;;;;14.30;13.00;;;;;;;11.02;55.84;97564.34;8281486;28;20311;-75
2023/04/21 04:24:26;;;;;;;14.87;13.47;;;;;;;11.00;55.69;97571.34;8281325;28;20242;-75
2023/04/21 04:28:31;;;;;;;14.43;13.03;;;;;;;10.86;56.03;97569.50;8281380;28;20563;-75
2023/04/21 04:32:36;;;;;;;14.73;13.30;;;;;;;10.88;55.89;97572.84;8280878;28;20426;-75
2023/04/21 04:36:42;;;;;;;16.17;14.50;;;;;;;11.00;55.79;97580.88;8280766;28;20227;-74
2023/04/21 04:40:44;;;;;;;16.27;14.63;;;;;;;10.94;56.07;97574.28;8281337;28;20230;-76
2023/04/21 04:44:47;;;;;;;16.27;14.67;;;;;;;10.96;56.29;97575.03;8281058;28;20232;-75
2023/04/21 04:48:50;;;;;;;16.83;15.13;;;;;;;10.90;56.48;97567.59;8280874;28;20279;-74
2023/04/21 04:52:55;;;;;;;17.17;15.40;;;;;;;10.94;56.08;97571.69;8280864;28;20240;-74
2023/04/21 04:56:57;;;;;;;16.70;14.97;;;;;;;10.95;56.19;97568.19;8280425;28;20256;-74
2023/04/21 05:01:11;;;;;;;15.97;14.37;;;;;;;11.04;55.97;97566.84;8280737;28;20232;-75
2023/04/21 05:05:13;;;;;;;15.70;14.10;;;;;;;11.05;56.60;97565.94;8283902;28;20241;-78
2023/04/21 05:09:17;;;;;;;14.80;13.30;;;;;;;11.14;56.32;97568.06;8286830;28;20230;-75
2023/04/21 05:13:20;;;;;;;16.27;14.57;;;;;;;11.06;56.43;97573.66;8286358;28;20424;-75
2023/04/21 05:17:23;;;;;;;14.80;13.37;;;;;;;11.25;55.81;97580.44;8286479;28;20289;-75
2023/04/21 05:21:27;;;;;;;15.37;13.87;;;;;;;11.14;56.08;97584.44;8286559;28;20234;-75
2023/04/21 05:25:31;;;;;;;16.37;14.60;;;;;;;11.24;56.04;97578.78;8286627;28;20424;-75
2023/04/21 05:29:34;;;;;;;15.93;14.33;;;;;;;11.57;56.18;97580.47;8286537;28;20294;-74
2023/04/21 05:33:36;;;;;;;17.50;15.63;;;;;;;11.74;56.16;97544.88;8286268;28;20234;-74
2023/04/21 05:37:39;;;;;;;16.03;14.50;;;;;;;12.31;55.55;97570.25;8285945;28;20235;-74
2023/04/21 05:41:43;;;;;;;17.23;15.43;;;;;;;12.04;56.17;97538.94;8285827;28;20228;-74
2023/04/21 05:45:46;;;;;;;15.73;14.13;;;;;;;12.29;55.17;97592.88;8285773;28;20228;-73
2023/04/21 05:49:52;;;;;;;15.73;14.13;;;;;;;12.40;54.85;97587.06;8285900;28;20506;-74
2023/04/21 05:53:55;;;;;;;16.87;15.20;;;;;;;12.55;55.15;97587.13;8285317;28;20237;-74
2023/04/21 05:58:02;;;;;;;16.03;14.33;;;;;;;12.65;55.46;97583.03;8285366;28;20235;-74
2023/04/21 06:02:05;;;;;;;15.43;13.83;;;;;;;12.75;56.67;97580.72;8285576;28;20233;-74
2023/04/21 06:06:10;;;;;;;16.60;14.30;;;;;;;12.89;56.55;97580.75;8285161;28;20434;-74
2023/04/21 06:10:15;;;;;;;16.77;15.10;;;;;;;12.85;56.67;97580.09;8285133;28;20227;-74
2023/04/21 06:14:19;;;;;;;16.03;14.33;;;;;;;12.99;56.47;97587.06;8284470;28;20238;-75
2023/04/21 06:18:22;;;;;;;17.80;15.90;;;;;;;13.07;57.33;97595.22;8284766;28;20310;-74
2023/04/21 06:22:25;;;;;;;18.87;14.50;;;;;;;13.25;56.22;97589.84;8284405;28;20245;-74
2023/04/21 06:26:28;;;;;;;16.80;14.97;;;;;;;13.14;57.31;97589.69;8284401;28;20231;-73
2023/04/21 06:30:33;;;;;;;16.40;14.17;;;;;;;12.74;58.80;97566.91;8284406;28;20227;-73
2023/04/21 06:34:35;;;;;;;18.00;15.67;;;;;;;12.40;59.43;97589.66;8284230;28;20403;-73
2023/04/21 06:38:40;;;;;;;17.17;14.63;;;;;;;12.82;58.15;97590.66;8284312;28;20234;-74
2023/04/21 06:42:43;;;;;;;17.17;15.10;;;;;;;12.93;57.82;97592.66;8283427;28;20290;-74
2023/04/21 06:46:50;;;;;;;14.90;13.30;;;;;;;13.36;57.84;97571.03;8284132;28;20227;-74
2023/04/21 06:50:53;;;;;;;16.17;14.47;;;;;;;13.10;58.44;97582.06;8284132;28;20250;-74
2023/04/21 06:54:55;;;;;;;14.37;12.93;;;;;;;13.69;55.99;97592.34;8283915;28;20232;-74
2023/04/21 06:58:58;;;;;;;18.63;15.93;;;;;;;13.07;57.27;97564.03;8283955;28;20228;-74
2023/04/21 07:03:03;;;;;;;15.83;14.20;;;;;;;13.86;55.95;97595.66;8283227;28;20224;-74
2023/04/21 07:07:06;;;;;;;15.93;14.23;;;;;;;14.11;55.43;97592.31;8283422;28;20238;-74
2023/04/21 07:11:09;;;;;;;17.60;13.80;;;;;;;14.20;54.76;97593.47;8283421;28;20227;-75
2023/04/21 07:15:12;;;;;;;20.83;14.30;;;;;;;14.30;54.86;97578.91;8259568;28;20304;-74
2023/04/21 07:19:18;;;;;;;14.70;13.20;;;;;;;15.93;51.35;97593.03;8283181;28;20293;-75
2023/04/21 07:23:21;;;;;;;14.17;12.67;;;;;;;16.58;49.08;97592.59;8282220;28;20292;-75
2023/04/21 07:27:24;;;;;;;14.60;12.60;;;;;;;16.27;50.00;97594.03;8282275;28;20545;-73
2023/04/21 07:31:27;;;;;;;15.50;13.90;;;;;;;17.10;47.71;97590.44;8282198;28;20238;-73
2023/04/21 07:35:31;;;;;;;15.20;13.10;;;;;;;16.50;48.64;97591.50;8282177;28;20529;-73
2023/04/21 07:39:35;;;;;;;12.93;11.63;;;;;;;16.07;48.61;97582.44;8282182;28;20232;-73
2023/04/21 07:43:38;;;;;;;13.27;11.03;;;;;;;16.35;46.96;97585.63;8282190;28;20242;-74
2023/04/21 07:47:41;;;;;;;13.43;11.27;;;;;;;15.91;48.31;97592.31;8282073;28;20233;-75
2023/04/21 07:51:45;;;;;;;11.77;10.60;;;;;;;16.57;46.83;97580.47;8264524;28;20515;-74
2023/04/21 07:55:48;;;;;;;11.90;10.80;;;;;;;17.32;45.19;97576.53;8281743;28;20233;-74
2023/04/21 07:59:50;;;;;;;12.07;10.87;;;;;;;16.44;47.49;97579.72;8282044;28;20230;-74
2023/04/21 08:03:53;;;;;;;10.83;9.83;;;;;;;16.88;45.66;97575.56;8281235;28;20335;-74
2023/04/21 08:07:58;;;;;;;12.37;11.07;;;;;;;16.19;46.94;97583.31;8281478;28;20231;-74
2023/04/21 08:12:01;;;;;;;11.87;9.93;;;;;;;17.24;44.80;97589.38;8281502;28;20233;-74
2023/04/21 08:16:04;;;;;;;11.37;10.33;;;;;;;16.42;46.80;97579.00;8281471;28;20238;-74
2023/04/21 08:20:08;;;;;;;11.37;9.63;;;;;;;18.15;43.39;97567.34;8281505;28;20424;-74
2023/04/21 08:24:12;;;;;;;11.20;10.10;;;;;;;17.52;44.85;97574.16;8281155;28;20226;-73
2023/04/21 08:28:18;;;;;;;10.97;9.37;;;;;;;18.12;42.51;97567.56;8281242;28;20225;-74
2023/04/21 08:32:23;;;;;;;10.37;8.97;;;;;;;19.20;40.47;97571.75;8280812;28;20256;-73
2023/04/21 08:36:26;;;;;;;8.93;8.13;;;;;;;19.76;39.50;97570.41;8280905;28;20226;-74
2023/04/21 08:40:35;;;;;;;9.83;8.83;;;;;;;18.88;40.64;97566.63;8285157;28;20555;-74
2023/04/21 08:44:39;;;;;;;9.10;8.20;;;;;;;19.67;38.88;97566.78;8287721;28;20246;-74
2023/04/21 08:48:41;;;;;;;9.67;8.77;;;;;;;19.97;38.60;97564.22;8287580;28;20238;-74
2023/04/21 08:52:44;;;;;;;9.87;8.90;;;;;;;18.39;41.65;97576.78;8287229;28;20246;-74
2023/04/21 08:56:49;;;;;;;9.90;8.87;;;;;;;19.18;40.24;97564.97;8287225;28;20231;-75
2023/04/21 09:00:52;;;;;;;9.20;8.30;;;;;;;18.98;40.88;97575.34;8287459;28;20522;-75
2023/04/21 09:04:54;;;;;;;7.63;6.93;;;;;;;20.56;38.36;97570.31;8286699;28;20234;-75
2023/04/21 09:08:58;;;;;;;8.23;7.40;;;;;;;19.95;38.15;97569.63;8286794;28;20227;-75
2023/04/21 09:13:08;;;;;;;8.73;7.90;;;;;;;19.73;38.49;97563.66;8286810;28;20231;-75
2023/04/21 09:17:11;;;;;;;9.30;8.13;;;;;;;20.39;38.21;97556.06;8286160;28;20543;-75
2023/04/21 09:21:15;;;;;;;6.63;6.00;;;;;;;20.94;37.24;97553.63;8286562;28;20298;-75
2023/04/21 09:25:20;;;;;;;6.60;5.97;;;;;;;20.88;35.36;97517.38;8285419;28;20430;-73
2023/04/21 09:29:24;;;;;;;6.93;6.33;;;;;;;20.68;37.31;97551.63;8286204;28;20652;-71
2023/04/21 09:33:28;;;;;;;6.77;5.93;;;;;;;20.65;35.71;97559.81;8285990;28;20234;-71
2023/04/21 09:37:39;;;;;;;6.80;6.30;;;;;;;19.66;36.55;97559.84;8285608;28;20250;-72
2023/04/21 09:41:43;;;;;;;6.37;5.77;;;;;;;21.08;35.66;97555.81;8285624;28;20246;-71
2023/04/21 09:45:48;;;;;;;8.00;5.77;;;;;;;20.01;36.73;97536.69;8284099;28;20231;-72
2023/04/21 09:49:52;;;;;;;6.60;6.00;;;;;;;19.70;36.68;97549.91;8285256;28;20238;-72
2023/04/21 09:53:59;;;;;;;6.80;6.20;;;;;;;20.44;35.96;97559.94;8285180;28;20219;-72
2023/04/21 09:58:04;;;;;;;6.47;5.87;;;;;;;20.05;36.54;97546.00;8285254;28;20231;-72
2023/04/21 10:02:09;;;;;;;6.50;5.80;;;;;;;20.09;36.71;97550.81;8285445;28;20248;-71
2023/04/21 10:06:13;;;;;;;6.40;5.63;;;;;;;20.71;35.27;97526.84;8285200;28;20304;-71
2023/04/21 10:10:20;;;;;;;6.00;5.40;;;;;;;20.57;36.62;97508.84;8285169;28;20269;-72
2023/04/21 10:14:25;;;;;;;7.47;5.60;;;;;;;20.81;37.11;97548.72;8284542;28;20259;-72
2023/04/21 10:18:29;;;;;;;6.17;5.57;;;;;;;20.96;35.38;97532.44;8284827;28;20260;-71
2023/04/21 10:22:33;;;;;;;5.67;5.10;;;;;;;21.12;37.24;97537.13;8284810;28;20229;-71
2023/04/21 10:26:36;;;;;;;4.70;4.30;;;;;;;21.13;38.12;97522.97;8284341;28;20242;-71
2023/04/21 10:30:42;;;;;;;6.73;4.97;;;;;;;20.66;36.28;97523.81;8284590;28;20231;-72
2023/04/21 10:34:46;;;;;;;5.87;5.27;;;;;;;20.87;36.01;97521.81;8284134;28;20234;-71
2023/04/21 10:38:55;;;;;;;5.10;4.63;;;;;;;21.66;36.25;97472.22;8284080;28;20234;-69
2023/04/21 10:42:58;;;;;;;5.37;4.67;;;;;;;22.95;34.06;97496.28;8283842;28;20421;-69
2023/04/21 10:47:10;;;;;;;5.03;4.50;;;;;;;23.09;33.19;97504.63;8283984;28;20254;-69
2023/04/21 10:51:17;;;;;;;5.20;4.70;;;;;;;23.96;31.82;97500.75;8284071;28;20231;-69
2023/04/21 10:55:21;;;;;;;5.43;4.93;;;;;;;22.87;32.56;97500.72;8282764;28;20237;-69
2023/04/21 10:59:24;;;;;;;6.40;5.80;;;;;;;22.24;32.56;97419.00;8283382;28;20239;-69
2023/04/21 11:03:34;;;;;;;4.70;4.40;;;;;;;23.40;31.47;97491.72;8282327;28;20242;-69
2023/04/21 11:07:40;;;;;;;4.73;4.33;;;;;;;23.06;32.29;97489.94;8282850;28;27902;-69
2023/04/21 11:11:43;;;;;;;4.90;4.50;;;;;;;24.17;31.29;97475.63;8282949;28;20223;-69
2023/04/21 11:16:00;;;;;;;5.30;4.87;;;;;;;23.40;31.26;97466.09;8282762;28;20227;-69
2023/04/21 11:20:05;;;;;;;4.33;3.80;;;;;;;23.19;31.63;97471.00;8281932;28;20231;-69
2023/04/21 11:24:10;;;;;;;3.47;3.20;;;;;;;23.20;30.56;97459.44;8281871;28;20227;-69
2023/04/21 11:28:21;;;;;;;3.33;3.10;;;;;;;22.62;30.77;97459.16;8282149;28;20253;-69
2023/04/21 11:32:24;;;;;;;3.70;3.50;;;;;;;22.71;30.34;97449.47;8281862;28;20227;-69
2023/04/21 11:36:28;;;;;;;4.03;3.77;;;;;;;22.21;30.72;97460.66;8282012;28;20553;-69
2023/04/21 11:40:44;;;;;;;3.73;3.47;;;;;;;22.30;31.06;97449.22;8281970;28;20414;-69
2023/04/21 11:44:47;;;;;;;3.60;3.40;;;;;;;22.51;29.48;97448.06;8281771;28;20547;-69
2023/04/21 11:48:58;;;;;;;3.77;3.47;;;;;;;22.76;30.58;97455.09;8282049;28;20249;-69
2023/04/21 11:53:02;;;;;;;4.07;3.77;;;;;;;23.19;28.94;97442.78;8281899;28;20238;-70
2023/04/21 11:57:06;;;;;;;4.37;3.90;;;;;;;22.96;30.06;97444.28;8281951;28;20250;-70
2023/04/21 12:01:09;;;;;;;5.47;4.17;;;;;;;23.32;28.50;97441.47;8281927;28;20227;-70
2023/04/21 12:05:13;;;;;;;4.37;3.30;;;;;;;23.25;28.88;97425.47;8281620;28;20241;-70
2023/04/21 12:09:20;;;;;;;4.47;4.17;;;;;;;22.37;29.69;97445.00;8281395;28;20242;-70
2023/04/21 12:13:25;;;;;;;3.77;3.40;;;;;;;22.95;29.49;97437.38;8280788;28;20511;-70
2023/04/21 12:17:36;;;;;;;4.30;4.00;;;;;;;23.14;30.02;97426.56;8277320;28;20239;-70
2023/04/21 12:21:39;;;;;;;3.90;3.50;;;;;;;23.61;30.43;97418.09;8277409;28;20227;-69
2023/04/21 12:25:44;;;;;;;3.97;3.53;;;;;;;23.42;29.70;97427.16;8279505;28;20238;-70
2023/04/21 12:29:49;;;;;;;4.03;3.63;;;;;;;23.07;30.22;97422.91;8280074;28;20384;-70
2023/04/21 12:33:54;;;;;;;4.00;3.70;;;;;;;22.91;30.37;97428.13;8280429;28;20518;-70
2023/04/21 12:37:57;;;;;;;3.90;3.60;;;;;;;22.91;29.55;97415.75;8281127;28;20479;-69
2023/04/21 12:42:00;;;;;;;3.93;3.53;;;;;;;22.94;29.77;97411.94;8280939;28;20239;-70
2023/04/21 12:46:04;;;;;;;4.27;3.43;;;;;;;23.36;29.22;97417.22;8280837;28;20434;-69
2023/04/21 12:50:09;;;;;;;3.20;3.00;;;;;;;24.12;28.59;97415.31;8281078;28;20302;-69
2023/04/21 12:54:12;;;;;;;3.53;3.03;;;;;;;24.22;28.53;97407.19;8280795;28;20340;-69
2023/04/21 12:58:15;;;;;;;4.60;2.80;;;;;;;24.11;28.74;97404.91;8280727;28;20235;-69
2023/04/21 13:02:19;;;;;;;4.33;3.67;;;;;;;23.18;28.04;97329.38;8280260;28;20563;-70
2023/04/21 13:06:22;;;;;;;3.43;3.20;;;;;;;23.11;28.80;97384.63;8280576;28;20250;-69
2023/04/21 13:10:25;;;;;;;4.10;2.97;;;;;;;23.29;28.73;97410.13;8280449;28;20242;-68
2023/04/21 13:14:28;;;;;;;3.00;2.80;;;;;;;23.60;27.70;97408.50;8280388;28;20233;-69
2023/04/21 13:18:33;;;;;;;3.07;2.87;;;;;;;23.42;27.39;97386.69;8280204;28;20298;-69
2023/04/21 13:22:36;;;;;;;3.03;2.83;;;;;;;23.74;27.55;97403.53;8280398;28;20259;-68
2023/04/21 13:26:39;;;;;;;2.80;2.60;;;;;;;23.41;27.36;97380.56;8284381;28;20242;-69
2023/04/21 13:30:43;;;;;;;2.43;2.23;;;;;;;23.77;26.77;97397.94;8286340;28;20238;-68
2023/04/21 13:34:47;;;;;;;3.00;2.70;;;;;;;23.32;27.76;97389.50;8286600;28;20231;-68
2023/04/21 13:38:52;;;;;;;7.83;2.83;;;;;;;23.87;28.78;97398.63;8286277;28;20432;-68
2023/04/21 13:42:57;;;;;;;2.77;2.63;;;;;;;23.59;28.80;97391.00;8285966;28;20254;-68
2023/04/21 13:47:00;;;;;;;2.80;2.60;;;;;;;22.97;28.05;97378.13;8286146;28;20425;-68
2023/04/21 13:51:05;;;;;;;2.70;2.50;;;;;;;23.72;27.62;97384.38;8286139;28;20286;-68
2023/04/21 13:55:08;;;;;;;2.73;2.53;;;;;;;23.90;27.29;97379.78;8285988;28;20274;-68
2023/04/21 13:59:13;;;;;;;2.47;2.37;;;;;;;23.96;27.44;97373.81;8285484;28;20231;-68
2023/04/21 14:03:16;;;;;;;2.23;2.13;;;;;;;23.11;28.56;97370.59;8285468;28;20235;-68
2023/04/21 14:07:20;;;;;;;2.67;2.47;;;;;;;23.39;27.61;97365.88;8285042;28;20227;-69
2023/04/21 14:11:28;;;;;;;2.60;2.50;;;;;;;22.64;28.74;97362.19;8285289;28;20231;-68
2023/04/21 14:15:30;;;;;;;2.33;2.23;;;;;;;22.63;28.77;97357.88;8285015;28;20231;-68
2023/04/21 14:19:33;;;;;;;2.20;2.10;;;;;;;22.90;27.92;97353.34;8284230;28;20243;-67
2023/04/21 14:23:38;;;;;;;2.33;2.23;;;;;;;23.29;27.68;97344.06;8285252;28;27070;-69
2023/04/21 14:27:41;;;;;;;2.10;2.00;;;;;;;22.82;27.25;97330.41;8284735;28;20257;-69
2023/04/21 14:31:44;;;;;;;2.63;2.27;;;;;;;23.20;27.47;97341.41;8284793;28;20227;-69
2023/04/21 14:35:47;;;;;;;2.50;2.30;;;;;;;23.16;28.65;97331.34;8284655;28;20242;-69
2023/04/21 14:39:53;;;;;;;2.77;2.50;;;;;;;22.37;28.64;97330.72;8283976;28;20232;-69
2023/04/21 14:43:58;;;;;;;2.20;2.10;;;;;;;22.97;28.17;97322.69;8284715;28;20266;-69
2023/04/21 14:48:00;;;;;;;2.50;1.93;;;;;;;23.16;27.62;97299.66;8284590;28;20235;-69
2023/04/21 14:52:04;;;;;;;3.07;2.77;;;;;;;22.20;29.43;97311.31;8284163;28;20525;-69
2023/04/21 14:56:09;;;;;;;2.30;2.20;;;;;;;21.97;30.47;97303.97;8284050;28;20537;-69
2023/04/21 15:00:12;;;;;;;2.37;2.27;;;;;;;;;;8283605;28;20231;-70
2023/04/21 15:04:14;;;;;;;2.60;2.23;;;;;;;21.73;29.79;97317.81;8283550;28;20246;-69
2023/04/21 15:08:17;;;;;;;2.47;2.30;;;;;;;21.82;28.86;97306.34;8283274;28;20262;-72
2023/04/21 15:12:22;;;;;;;2.20;2.10;;;;;;;21.75;29.48;97301.84;8283350;28;20223;-72
2023/04/21 15:16:24;;;;;;;2.60;2.40;;;;;;;21.48;30.65;97312.38;8283326;28;20231;-69
2023/04/21 15:20:27;;;;;;;4.43;2.70;;;;;;;21.52;30.73;97310.25;8282923;28;20337;-70
2023/04/21 15:24:47;;;;;;;3.07;2.60;;;;;;;21.52;31.25;97304.16;8283172;28;20243;-72
2023/04/21 15:28:51;;;;;;;3.63;2.70;;;;;;;21.44;31.85;97303.13;8282560;28;20435;-68
2023/04/21 15:32:54;;;;;;;2.87;2.67;;;;;;;21.79;31.72;97298.75;8282577;28;20593;-69
2023/04/21 15:36:57;;;;;;;2.80;2.40;;;;;;;21.23;31.79;97290.25;8282454;28;20293;-69
2023/04/21 15:41:01;;;;;;;2.50;2.40;;;;;;;20.92;31.97;97281.06;8282403;28;20226;-68
2023/04/21 15:45:07;;;;;;;2.50;2.30;;;;;;;21.20;31.04;97284.44;8277781;28;20227;-68
2023/04/21 15:49:09;;;;;;;2.00;1.90;;;;;;;21.12;30.68;97285.19;8282119;28;20253;-68
2023/04/21 15:53:12;;;;;;;2.60;2.00;;;;;;;21.25;30.58;97275.13;8282101;28;20230;-69
2023/04/21 15:57:16;;;;;;;2.00;1.90;;;;;;;21.59;30.09;97269.16;8281752;28;20231;-69
2023/04/21 16:01:21;;;;;;;3.20;2.30;;;;;;;21.41;30.17;97279.69;8281329;28;20234;-69
2023/04/21 16:05:24;;;;;;;1.93;1.60;;;;;;;21.54;28.30;97276.69;8281417;28;20258;-68
2023/04/21 16:09:30;;;;;;;3.67;2.20;;;;;;;21.50;30.64;97267.44;8281792;28;20241;-68
2023/04/21 16:13:33;;;;;;;2.93;2.60;;;;;;;21.27;31.08;97273.16;8281726;28;20337;-68
2023/04/21 16:17:37;;;;;;;3.00;2.80;;;;;;;21.36;31.11;97260.88;8281377;28;20227;-68
2023/04/21 16:21:41;;;;;;;2.67;2.47;;;;;;;21.37;31.25;97259.06;8281571;28;20235;-69
2023/04/21 16:25:44;;;;;;;3.13;2.30;;;;;;;21.41;30.86;97263.88;8281438;28;20236;-68
2023/04/21 16:29:49;;;;;;;3.00;2.80;;;;;;;21.19;31.67;97262.56;8281082;28;20235;-69
2023/04/21 16:33:58;;;;;;;4.23;2.77;;;;;;;21.11;32.56;97259.03;8281232;28;20425;-68
2023/04/21 16:38:01;;;;;;;3.40;3.10;;;;;;;21.13;32.61;97257.88;8281342;28;20245;-68
2023/04/21 16:42:04;;;;;;;2.97;2.77;;;;;;;21.00;32.69;97253.03;8281111;28;20230;-69
2023/04/21 16:46:07;;;;;;;5.40;4.80;;;;;;;20.89;32.77;97254.06;8280950;28;20219;-69
2023/04/21 16:50:12;;;;;;;2.80;2.60;;;;;;;20.99;32.81;97245.28;8281393;28;20234;-70
2023/04/21 16:54:14;;;;;;;3.40;2.50;;;;;;;20.93;32.90;97249.34;8281037;28;20294;-68
2023/04/21 16:58:17;;;;;;;3.63;2.60;;;;;;;20.85;32.46;97252.72;8280499;28;20235;-70
2023/04/21 17:02:20;;;;;;;3.27;2.40;;;;;;;20.70;32.85;97259.47;8286356;28;20245;-70
2023/04/21 17:06:26;;;;;;;2.87;2.60;;;;;;;20.59;32.92;97263.09;8286940;28;20252;-74
2023/04/21 17:10:28;;;;;;;2.40;2.10;;;;;;;20.96;32.73;97256.94;8287219;28;20302;-73
2023/04/21 17:14:31;;;;;;;2.40;2.10;;;;;;;20.75;32.70;97267.72;8284622;28;20572;-71
2023/04/21 17:18:34;;;;;;;2.17;1.97;;;;;;;20.74;31.80;97245.03;8286723;28;20542;-73
2023/04/21 17:22:39;;;;;;;1.70;1.40;;;;;;;20.57;31.16;97232.69;8286679;28;20251;-73
2023/04/21 17:26:42;;;;;;;1.70;1.60;;;;;;;20.73;30.81;97266.22;8286400;28;20230;-72
2023/04/21 17:30:45;;;;;;;1.47;1.40;;;;;;;20.75;31.07;97259.03;8286613;28;20580;-73
2023/04/21 17:34:48;;;;;;;1.53;1.13;;;;;;;20.77;31.08;97271.06;8286318;28;20510;-73
2023/04/21 17:38:53;;;;;;;1.50;1.40;;;;;;;20.63;31.16;97271.56;8286288;28;20235;-73
2023/04/21 17:42:59;;;;;;;1.37;1.30;;;;;;;20.53;31.42;97268.97;8286091;28;20223;-67
2023/04/21 17:47:06;;;;;;;2.27;1.53;;;;;;;20.48;31.43;97273.81;8285879;28;20230;-68
2023/04/21 17:51:10;;;;;;;1.50;1.40;;;;;;;20.35;31.88;97281.22;8285949;28;20238;-67
2023/04/21 17:55:15;;;;;;;1.73;1.63;;;;;;;20.24;31.87;97285.72;8285720;28;20319;-68
2023/04/21 17:59:18;;;;;;;1.97;1.50;;;;;;;20.30;32.11;97287.75;8285026;28;20422;-68
2023/04/21 18:03:21;;;;;;;1.60;1.50;;;;;;;20.24;32.10;97285.72;8285067;28;20239;-68
2023/04/21 18:07:24;;;;;;;1.67;1.57;;;;;;;20.07;31.90;97265.47;8285033;28;20242;-69
2023/04/21 18:11:29;;;;;;;1.83;1.40;;;;;;;19.97;32.02;97285.69;8284559;28;20307;-68
2023/04/21 18:15:32;;;;;;;1.57;1.47;;;;;;;19.90;32.53;97293.31;8284933;28;20231;-69
2023/04/21 18:19:35;;;;;;;1.60;1.50;;;;;;;19.96;32.40;97292.75;8284432;28;20231;-69
2023/04/21 18:23:38;;;;;;;1.80;1.70;;;;;;;19.79;32.73;97282.97;8284575;28;20245;-69
2023/04/21 18:27:42;;;;;;;1.70;1.60;;;;;;;19.75;33.19;97300.00;8284682;28;20234;-68
2023/04/21 18:31:45;;;;;;;2.20;2.00;;;;;;;19.76;33.53;97288.50;8284348;28;20223;-70
2023/04/21 18:35:48;;;;;;;1.80;1.70;;;;;;;19.78;33.78;97299.69;8284056;28;20255;-69
2023/04/21 18:39:56;;;;;;;2.10;1.90;;;;;;;19.78;34.92;97312.84;8283559;28;20236;-68
2023/04/21 18:44:00;;;;;;;6.53;5.90;;;;;;;19.46;34.71;97290.34;8284173;28;20526;-69
2023/04/21 18:48:03;;;;;;;8.17;7.43;;;;;;;19.26;35.13;97294.78;8284087;28;20223;-67
2023/04/21 18:52:06;;;;;;;15.17;13.57;;;;;;;19.45;35.15;97323.63;8284332;28;20522;-70
2023/04/21 18:56:09;;;;;;;14.07;11.47;;;;;;;19.47;35.93;97326.94;8283688;28;20315;-69